De Sui — BSFU — position and weather

sailwx.info

Track history (hours):
 
Tides and Currents Weather Stations Pressure Air Temp Water Temp Dewpoint Dewpoint Depression Visibility Wind Speed Wind Dir Waves Ship Positions

De Sui

Last reported at 2014-Nov-29 01:24 UTC. Time now 2014-Nov-29 02:27 UTC.
Position N 22°18' E 114°08'.

Length 65 m; draft 5 m.

Type: Tug. MMSI: 413070000.

Date/timePositionNaut miles runAvg speedWind from/ knotsBaromVisibWave heightAir tempDewpointWater temp
2014-Nov-29 01:24N 22°18' E 114°08'0 0.0
2014-Nov-29 00:30N 22°18' E 114°08'0 0.0
2014-Nov-28 23:30N 22°18' E 114°08'0 0.0
2014-Nov-28 22:24N 22°18' E 114°08'0 0.0
2014-Nov-28 21:30N 22°18' E 114°08'0 0.0
2014-Nov-28 20:24N 22°18' E 114°08'0 0.0
2014-Nov-28 19:30N 22°18' E 114°08'0 0.0
2014-Nov-28 18:30N 22°18' E 114°08'0 0.0
2014-Nov-28 16:30N 22°18' E 114°08'0 0.0
2014-Nov-28 15:06N 22°18' E 114°08'0 0.0
2014-Nov-28 14:30N 22°18' E 114°08'0 0.0
2014-Nov-28 13:30N 22°18' E 114°08'0 0.0
2014-Nov-28 12:24N 22°18' E 114°08'0 0.0
2014-Nov-28 11:29N 22°18' E 114°08'0 0.0
2014-Nov-28 10:29N 22°18' E 114°08'0 0.0
2014-Nov-28 09:29N 22°18' E 114°08'0 0.0
2014-Nov-28 03:23N 22°18' E 114°08'0 0.0
2014-Nov-28 02:29N 22°18' E 114°08'0 0.0
2014-Nov-28 01:29N 22°18' E 114°08'0 0.0
2014-Nov-28 00:29N 22°18' E 114°08'0 0.0
2014-Nov-27 23:29N 22°18' E 114°08'0 0.0
2014-Nov-27 22:23N 22°18' E 114°08'0 0.0
2014-Nov-27 21:17N 22°18' E 114°08'0 0.0
2014-Nov-27 20:29N 22°18' E 114°08'0 0.0
2014-Nov-27 19:29N 22°18' E 114°08'0 0.0
2014-Nov-27 18:29N 22°18' E 114°08'0 0.0
2014-Nov-27 17:29N 22°18' E 114°08'0 0.0
2014-Nov-27 16:29N 22°18' E 114°08'0 0.0
2014-Nov-27 15:29N 22°18' E 114°08'0 0.0
2014-Nov-27 14:17N 22°18' E 114°08'0 0.0
2014-Nov-27 13:29N 22°18' E 114°08'0 0.0
2014-Nov-27 12:29N 22°18' E 114°08'0 0.0
2014-Nov-27 11:29N 22°18' E 114°08'0 0.0
2014-Nov-27 10:29N 22°18' E 114°08'0 0.0
2014-Nov-27 09:29N 22°18' E 114°08'0 0.0
2014-Nov-27 08:29N 22°18' E 114°08'0 0.0
2014-Nov-27 07:29N 22°18' E 114°08'0 0.0
2014-Nov-27 06:23N 22°18' E 114°08'0 0.0
2014-Nov-27 05:17N 22°18' E 114°08'0 0.0
2014-Nov-27 04:29N 22°18' E 114°08'0 0.0
2014-Nov-27 03:23N 22°18' E 114°08'0 0.0
2014-Nov-27 02:17N 22°18' E 114°08'0 0.0
2014-Nov-27 01:29N 22°18' E 114°08'0 0.0
2014-Nov-27 00:22N 22°18' E 114°08'0 0.0
2014-Nov-26 23:28N 22°18' E 114°08'0 0.0
2014-Nov-26 22:22N 22°18' E 114°08'0 0.0
2014-Nov-26 21:28N 22°18' E 114°08'0 0.0
2014-Nov-26 20:28N 22°18' E 114°08'0 0.0
2014-Nov-26 19:28N 22°18' E 114°08'0 0.1
2014-Nov-26 18:28N 22°18' E 114°08'0 0.1
2014-Nov-26 17:28N 22°18' E 114°08'0 0.0
2014-Nov-26 16:28N 22°18' E 114°08'0 0.1
2014-Nov-26 15:33N 22°18' E 114°08'0 0.1
2014-Nov-26 14:33N 22°18' E 114°08'0 0.0
2014-Nov-26 13:33N 22°18' E 114°08'0 0.1
2014-Nov-26 12:33N 22°18' E 114°08'0 0.0
2014-Nov-26 11:33N 22°18' E 114°08'0 0.0
2014-Nov-26 10:33N 22°18' E 114°08'0 0.0
2014-Nov-26 09:33N 22°18' E 114°08'3 3.4
2014-Nov-26 08:33N 22°18' E 114°12'2 1.6
2014-Nov-26 07:33N 22°18' E 114°13'0 0.0
2014-Nov-26 06:34N 22°18' E 114°13'1 0.9
2014-Nov-26 05:33N 22°17' E 114°14'61 3.2
2014-Nov-25 10:29N 21°52' E 113°14'4 4.1
2014-Nov-25 09:33N 21°54' E 113°11'5 4.7
2014-Nov-25 08:33N 21°58' E 113°08'4 4.0
2014-Nov-25 07:33N 22°01' E 113°05'4 4.1
2014-Nov-25 06:33N 22°05' E 113°05'7 1.3
2014-Nov-25 01:07N 22°12' E 113°05'0 0.0
2014-Nov-25 00:30N 22°12' E 113°05'0 0.0
2014-Nov-24 23:30N 22°12' E 113°05'0 0.0
2014-Nov-24 22:23N 22°12' E 113°05'0 0.0
2014-Nov-24 21:04N 22°12' E 113°05'0 0.0
2014-Nov-24 18:33N 22°12' E 113°05'0 0.0
2014-Nov-24 15:29N 22°12' E 113°05'0 0.0
2014-Nov-24 14:31N 22°12' E 113°05'0 0.0
2014-Nov-23 20:05N 22°12' E 113°05'0 0.0
2014-Nov-23 19:21N 22°12' E 113°05'0 0.0
2014-Nov-23 18:26N 22°12' E 113°05'0 0.1
2014-Nov-23 17:28N 22°12' E 113°05'0 0.0
2014-Nov-23 16:28N 22°12' E 113°05'0 0.1
2014-Nov-23 15:27N 22°12' E 113°05'0 0.0
2014-Nov-23 14:32N 22°12' E 113°05'0 0.0
2014-Nov-23 10:09N 22°12' E 113°05'0 0.0
2014-Nov-22 00:15N 22°12' E 113°05'0 0.1
2014-Nov-21 23:29N 22°12' E 113°05'0 0.0
2014-Nov-21 20:25N 22°12' E 113°05'0 0.0
2014-Nov-21 19:33N 22°12' E 113°05'0 0.1
2014-Nov-21 18:31N 22°12' E 113°05'0 0.1
2014-Nov-21 17:29N 22°12' E 113°05'0 0.0
2014-Nov-21 16:16N 22°12' E 113°05'0 0.1
2014-Nov-21 15:31N 22°12' E 113°05'0 0.0
2014-Nov-21 14:13N 22°12' E 113°05'0 0.0
2014-Nov-21 13:20N 22°12' E 113°05'0 0.0
2014-Nov-21 09:31N 22°12' E 113°05'  
Track history (hours):
 
Tides and Currents Weather Stations Pressure Air Temp Water Temp Dewpoint Dewpoint Depression Visibility Wind Speed Wind Dir Waves Ship Positions

De Sui

Last reported at 2014-Nov-29 01:24 UTC. Time now 2014-Nov-29 02:27 UTC.
Position N 22°18' E 114°08'.

Length 65 m; draft 5 m.

Type: Tug. MMSI: 413070000.

Date/timePositionNaut miles runAvg speedWind from/ knotsBaromVisibWave heightAir tempDewpointWater temp
2014-Nov-29 01:24N 22°18' E 114°08'0 0.0
2014-Nov-29 00:30N 22°18' E 114°08'0 0.0
2014-Nov-28 23:30N 22°18' E 114°08'0 0.0
2014-Nov-28 22:24N 22°18' E 114°08'0 0.0
2014-Nov-28 21:30N 22°18' E 114°08'0 0.0
2014-Nov-28 20:24N 22°18' E 114°08'0 0.0
2014-Nov-28 19:30N 22°18' E 114°08'0 0.0
2014-Nov-28 18:30N 22°18' E 114°08'0 0.0
2014-Nov-28 16:30N 22°18' E 114°08'0 0.0
2014-Nov-28 15:06N 22°18' E 114°08'0 0.0
2014-Nov-28 14:30N 22°18' E 114°08'0 0.0
2014-Nov-28 13:30N 22°18' E 114°08'0 0.0
2014-Nov-28 12:24N 22°18' E 114°08'0 0.0
2014-Nov-28 11:29N 22°18' E 114°08'0 0.0
2014-Nov-28 10:29N 22°18' E 114°08'0 0.0
2014-Nov-28 09:29N 22°18' E 114°08'0 0.0
2014-Nov-28 03:23N 22°18' E 114°08'0 0.0
2014-Nov-28 02:29N 22°18' E 114°08'0 0.0
2014-Nov-28 01:29N 22°18' E 114°08'0 0.0
2014-Nov-28 00:29N 22°18' E 114°08'0 0.0
2014-Nov-27 23:29N 22°18' E 114°08'0 0.0
2014-Nov-27 22:23N 22°18' E 114°08'0 0.0
2014-Nov-27 21:17N 22°18' E 114°08'0 0.0
2014-Nov-27 20:29N 22°18' E 114°08'0 0.0
2014-Nov-27 19:29N 22°18' E 114°08'0 0.0
2014-Nov-27 18:29N 22°18' E 114°08'0 0.0
2014-Nov-27 17:29N 22°18' E 114°08'0 0.0
2014-Nov-27 16:29N 22°18' E 114°08'0 0.0
2014-Nov-27 15:29N 22°18' E 114°08'0 0.0
2014-Nov-27 14:17N 22°18' E 114°08'0 0.0
2014-Nov-27 13:29N 22°18' E 114°08'0 0.0
2014-Nov-27 12:29N 22°18' E 114°08'0 0.0
2014-Nov-27 11:29N 22°18' E 114°08'0 0.0
2014-Nov-27 10:29N 22°18' E 114°08'0 0.0
2014-Nov-27 09:29N 22°18' E 114°08'0 0.0
2014-Nov-27 08:29N 22°18' E 114°08'0 0.0
2014-Nov-27 07:29N 22°18' E 114°08'0 0.0
2014-Nov-27 06:23N 22°18' E 114°08'0 0.0
2014-Nov-27 05:17N 22°18' E 114°08'0 0.0
2014-Nov-27 04:29N 22°18' E 114°08'0 0.0
2014-Nov-27 03:23N 22°18' E 114°08'0 0.0
2014-Nov-27 02:17N 22°18' E 114°08'0 0.0
2014-Nov-27 01:29N 22°18' E 114°08'0 0.0
2014-Nov-27 00:22N 22°18' E 114°08'0 0.0
2014-Nov-26 23:28N 22°18' E 114°08'0 0.0
2014-Nov-26 22:22N 22°18' E 114°08'0 0.0
2014-Nov-26 21:28N 22°18' E 114°08'0 0.0
2014-Nov-26 20:28N 22°18' E 114°08'0 0.0
2014-Nov-26 19:28N 22°18' E 114°08'0 0.1
2014-Nov-26 18:28N 22°18' E 114°08'0 0.1
2014-Nov-26 17:28N 22°18' E 114°08'0 0.0
2014-Nov-26 16:28N 22°18' E 114°08'0 0.1
2014-Nov-26 15:33N 22°18' E 114°08'0 0.1
2014-Nov-26 14:33N 22°18' E 114°08'0 0.0
2014-Nov-26 13:33N 22°18' E 114°08'0 0.1
2014-Nov-26 12:33N 22°18' E 114°08'0 0.0
2014-Nov-26 11:33N 22°18' E 114°08'0 0.0
2014-Nov-26 10:33N 22°18' E 114°08'0 0.0
2014-Nov-26 09:33N 22°18' E 114°08'3 3.4
2014-Nov-26 08:33N 22°18' E 114°12'2 1.6
2014-Nov-26 07:33N 22°18' E 114°13'0 0.0
2014-Nov-26 06:34N 22°18' E 114°13'1 0.9
2014-Nov-26 05:33N 22°17' E 114°14'61 3.2
2014-Nov-25 10:29N 21°52' E 113°14'4 4.1
2014-Nov-25 09:33N 21°54' E 113°11'5 4.7
2014-Nov-25 08:33N 21°58' E 113°08'4 4.0
2014-Nov-25 07:33N 22°01' E 113°05'4 4.1
2014-Nov-25 06:33N 22°05' E 113°05'7 1.3
2014-Nov-25 01:07N 22°12' E 113°05'0 0.0
2014-Nov-25 00:30N 22°12' E 113°05'0 0.0
2014-Nov-24 23:30N 22°12' E 113°05'0 0.0
2014-Nov-24 22:23N 22°12' E 113°05'0 0.0
2014-Nov-24 21:04N 22°12' E 113°05'0 0.0
2014-Nov-24 18:33N 22°12' E 113°05'0 0.0
2014-Nov-24 15:29N 22°12' E 113°05'0 0.0
2014-Nov-24 14:31N 22°12' E 113°05'0 0.0
2014-Nov-23 20:05N 22°12' E 113°05'0 0.0
2014-Nov-23 19:21N 22°12' E 113°05'0 0.0
2014-Nov-23 18:26N 22°12' E 113°05'0 0.1
2014-Nov-23 17:28N 22°12' E 113°05'0 0.0
2014-Nov-23 16:28N 22°12' E 113°05'0 0.1
2014-Nov-23 15:27N 22°12' E 113°05'0 0.0
2014-Nov-23 14:32N 22°12' E 113°05'0 0.0
2014-Nov-23 10:09N 22°12' E 113°05'0 0.0
2014-Nov-22 00:15N 22°12' E 113°05'0 0.1
2014-Nov-21 23:29N 22°12' E 113°05'0 0.0
2014-Nov-21 20:25N 22°12' E 113°05'0 0.0
2014-Nov-21 19:33N 22°12' E 113°05'0 0.1
2014-Nov-21 18:31N 22°12' E 113°05'0 0.1
2014-Nov-21 17:29N 22°12' E 113°05'0 0.0
2014-Nov-21 16:16N 22°12' E 113°05'0 0.1
2014-Nov-21 15:31N 22°12' E 113°05'0 0.0
2014-Nov-21 14:13N 22°12' E 113°05'0 0.0
2014-Nov-21 13:20N 22°12' E 113°05'0 0.0
2014-Nov-21 09:31N 22°12' E 113°05'  

Dump ship's entire track history